| Date | Time | Temp. (oF) | Dew Point (oF) | Rel. Hum. (%) | Press. (in.) | Wind Dir. (deg.) | Wind Speed (mph) | Hourly Rainfall (i n.) |
|
|---|---|---|---|---|---|---|---|---|---|
| 1 | 03/18 | 24:00 | 44 | 33 | 66 | 29.81 | 140 | 0 | 0.00 |
| 2 | 03/17 | 23:00 | 46 | 34 | 64 | 29.81 | 140 | 0 | 0.00 |
| 3 | 03/17 | 22:00 | 47 | 33 | 60 | 29.83 | 140 | 0 | 0.00 |
| 4 | 03/17 | 21:00 | 49 | 34 | 58 | 29.84 | 140 | 0 | 0.00 |
| 5 | 03/17 | 20:00 | 52 | 35 | 53 | 29.85 | 140 | 0 | 0.00 |
| 6 | 03/17 | 19:00 | 57 | 35 | 45 | 29.87 | 140 | 0 | 0.00 |
| 7 | 03/17 | 18:00 | 64 | 35 | 35 | 29.91 | 140 | 0 | 0.00 |
| 8 | 03/17 | 17:00 | 67 | 35 | 31 | 29.91 | 240 | 6 | 0.00 |
| 9 | 03/17 | 16:00 | 68 | 34 | 29 | 29.97 | 290 | 7 | 0.00 |
| 10 | 03/17 | 15:00 | 68 | 35 | 31 | 29.92 | 150 | 10 | 0.00 |
| 11 | 03/17 | 14:00 | 68 | 35 | 31 | 29.96 | 330 | 7 | 0.00 |
| 12 | 03/17 | 13:00 | 67 | 35 | 31 | 29.90 | 250 | 6 | 0.00 |
| 13 | 03/17 | 12:00 | 67 | 36 | 33 | 30.00 | 30 | 6 | 0.00 |
| 14 | 03/17 | 11:00 | 64 | 35 | 35 | 30.04 | 150 | 4 | 0.00 |
| 15 | 03/17 | 10:00 | 53 | 36 | 53 | 30.01 | 130 | 1 | 0.00 |
| 16 | 03/17 | 09:00 | 38 | 31 | 77 | 30.00 | 230 | 0 | 0.00 |
| 17 | 03/17 | 08:00 | 32 | 27 | 82 | 29.98 | 230 | 0 | 0.00 |
| 18 | 03/17 | 07:00 | 30 | 25 | 83 | 29.97 | 230 | 0 | 0.00 |
| 19 | 03/17 | 06:00 | 30 | 24 | 81 | 29.95 | 230 | 0 | 0.00 |
| 20 | 03/17 | 05:00 | 30 | 24 | 80 | 29.93 | 230 | 0 | 0.00 |
| 21 | 03/17 | 04:00 | 30 | 24 | 80 | 29.92 | 230 | 0 | 0.00 |
| 22 | 03/17 | 03:00 | 31 | 24 | 78 | 29.91 | 230 | 0 | 0.00 |
| 23 | 03/17 | 02:00 | 32 | 24 | 73 | 29.93 | 230 | 0 | 0.00 |
| 24 | 03/17 | 01:00 | 32 | 23 | 70 | 29.92 | 230 | 0 | 0.00 |